Weerstation

Weerstation

Ons weerstation streamt live data naar onze server. 

Vliegweer

[Source: ADDS]
METAR
EBBR 220150Z 23011KT CAVOK 12/08 Q1020 NOSIG =
EBBR 212300Z 2200/2306 24011KT 9999 FEW045 PROB30 TEMPO 2220/2224 4500 RA BECMG 2222/2224 14005KT BKN014 BECMG 2300/2302 4500 BR -RADZ BKN007 PROB40 TEMPO 2302/2306 2500 -DZRA BKN004
TAF
EBBR 212300Z 2200/2306 24011KT 9999 FEW045 PROB30 TEMPO 2220/2224 4500 RA BECMG 2222/2224 14005KT BKN014 BECMG 2300/2302 4500 BR -RADZ BKN007 PROB40 TEMPO 2302/2306 2500 -DZRA BKN004 =

StormCell is een non profit organisatie zonder oogmerk tot sensatie